createdAt,value
2023-03-13T00:02:23.648Z,11.77
2023-03-13T00:05:09.747Z,10.55
2023-03-13T00:07:55.755Z,10.18
2023-03-13T00:10:42.443Z,9.52
2023-03-13T00:13:28.937Z,12.10
2023-03-13T00:16:16.735Z,10.90
2023-03-13T00:19:05.534Z,10.65
2023-03-13T00:21:51.577Z,11.27
2023-03-13T00:24:37.490Z,12.80
2023-03-13T00:27:23.475Z,11.40
2023-03-13T00:30:10.857Z,12.10
2023-03-13T00:32:56.936Z,11.65
2023-03-13T00:35:42.621Z,11.73
2023-03-13T00:38:32.095Z,16.00
2023-03-13T00:41:20.409Z,13.30
2023-03-13T00:44:07.038Z,16.70
2023-03-13T00:46:52.995Z,15.43
2023-03-13T00:49:38.760Z,15.57
2023-03-13T00:52:28.147Z,14.40
2023-03-13T00:55:14.106Z,22.58
2023-03-13T00:58:00.200Z,12.15
2023-03-13T01:00:46.063Z,12.85
2023-03-13T01:03:32.013Z,15.63
2023-03-13T01:06:22.745Z,11.95
2023-03-13T01:09:11.806Z,13.77
2023-03-13T01:11:57.870Z,11.35
2023-03-13T01:14:43.582Z,13.63
2023-03-13T01:17:30.037Z,12.35
2023-03-13T01:20:16.041Z,11.73
2023-03-13T01:23:02.309Z,12.52
2023-03-13T01:25:48.520Z,12.02
2023-03-13T01:28:35.355Z,10.60
2023-03-13T01:31:33.056Z,11.10
2023-03-13T01:34:19.638Z,11.85
2023-03-13T01:37:05.421Z,9.63
2023-03-13T01:39:51.308Z,8.85
2023-03-13T01:42:57.891Z,9.65
2023-03-13T01:46:05.961Z,13.20
2023-03-13T01:49:11.169Z,10.50
2023-03-13T01:52:20.085Z,11.25
2023-03-13T01:55:13.847Z,9.90
2023-03-13T01:58:01.996Z,12.88
2023-03-13T02:00:48.959Z,11.10
2023-03-13T02:03:35.782Z,8.57
2023-03-13T02:06:21.978Z,12.30
2023-03-13T02:09:12.739Z,9.73
2023-03-13T02:12:09.925Z,10.30
2023-03-13T02:14:56.810Z,8.73
2023-03-13T02:17:42.895Z,19.13
2023-03-13T02:20:29.011Z,11.48
2023-03-13T02:23:20.366Z,8.70
2023-03-13T02:26:06.915Z,10.20
2023-03-13T02:28:53.691Z,9.40
2023-03-13T02:31:40.025Z,9.75
2023-03-13T02:34:29.508Z,9.55
2023-03-13T02:37:17.806Z,10.60
2023-03-13T02:40:09.680Z,8.13
2023-03-13T02:42:56.943Z,8.75
2023-03-13T02:45:43.457Z,8.07
2023-03-13T02:48:41.923Z,10.40
2023-03-13T02:51:35.708Z,12.15
2023-03-13T02:54:25.003Z,8.80
2023-03-13T02:57:11.099Z,9.30
2023-03-13T02:59:57.200Z,8.70
2023-03-13T03:02:44.278Z,8.98
2023-03-13T03:05:30.261Z,8.00
2023-03-13T03:08:16.894Z,7.03
2023-03-13T03:11:03.057Z,9.43
2023-03-13T03:13:48.945Z,6.55
2023-03-13T03:16:36.230Z,6.57
2023-03-13T03:19:24.707Z,7.40
2023-03-13T03:22:10.724Z,7.20
2023-03-13T03:24:56.556Z,6.43
2023-03-13T03:27:43.383Z,8.02
2023-03-13T03:30:29.082Z,6.90
2023-03-13T03:33:14.841Z,9.70
2023-03-13T03:36:02.238Z,7.35
2023-03-13T03:38:49.600Z,8.43
2023-03-13T03:41:38.496Z,8.90
2023-03-13T03:44:25.255Z,6.57
2023-03-13T03:47:17.312Z,8.27
2023-03-13T03:50:07.738Z,7.50
2023-03-13T03:53:01.757Z,8.60
2023-03-13T03:55:47.594Z,9.88
2023-03-13T03:58:33.403Z,9.10
2023-03-13T04:01:39.834Z,8.35
2023-03-13T04:04:25.764Z,10.63
2023-03-13T04:07:18.734Z,8.88
2023-03-13T04:10:05.271Z,9.30
2023-03-13T04:12:57.298Z,10.85
2023-03-13T04:15:43.862Z,8.95
2023-03-13T04:18:30.926Z,8.52
2023-03-13T04:21:16.670Z,11.45
2023-03-13T04:24:07.847Z,9.98
2023-03-13T04:26:58.572Z,12.05
2023-03-13T04:29:45.388Z,9.73
2023-03-13T04:36:19.738Z,8.23
2023-03-13T04:39:28.706Z,11.70
2023-03-13T04:42:29.716Z,12.90
2023-03-13T04:45:28.190Z,11.60
2023-03-13T04:48:14.658Z,9.27
2023-03-13T04:51:23.676Z,12.18
2023-03-13T04:54:29.874Z,11.18
2023-03-13T04:57:34.421Z,14.93
2023-03-13T05:00:34.930Z,14.13
2023-03-13T05:03:39.888Z,17.00
2023-03-13T05:06:48.350Z,15.45
2023-03-13T05:10:00.655Z,12.05
2023-03-13T05:12:52.800Z,18.70
2023-03-13T05:15:47.849Z,23.38
2023-03-13T05:18:55.072Z,29.55
2023-03-13T05:21:53.997Z,30.27
2023-03-13T05:25:06.326Z,27.75
2023-03-13T05:28:10.826Z,30.05
2023-03-13T05:34:18.633Z,30.25
2023-03-13T05:37:27.716Z,32.58
2023-03-13T05:40:49.256Z,26.75
2023-03-13T05:44:02.724Z,26.90
2023-03-13T05:47:07.421Z,28.83
2023-03-13T05:50:03.475Z,26.35
2023-03-13T05:53:13.064Z,28.77
2023-03-13T05:56:10.661Z,29.45
2023-03-13T05:59:19.568Z,33.20
2023-03-13T06:02:32.113Z,33.80
2023-03-13T06:05:19.034Z,37.13
2023-03-13T06:08:06.021Z,28.60
2023-03-13T06:10:51.711Z,30.92
2023-03-13T06:13:37.978Z,43.05
2023-03-13T06:16:50.690Z,25.17
2023-03-13T06:19:40.171Z,17.48
2023-03-13T06:22:26.254Z,19.50
2023-03-13T06:25:11.893Z,24.55
2023-03-13T06:27:57.835Z,26.92
2023-03-13T06:30:43.927Z,31.33
2023-03-13T06:33:31.101Z,47.10
2023-03-13T06:36:16.839Z,58.85
2023-03-13T06:39:03.307Z,48.28
2023-03-13T06:41:49.246Z,38.65
2023-03-13T06:44:34.976Z,32.50
2023-03-13T06:47:20.727Z,37.75
2023-03-13T06:50:06.985Z,31.98
2023-03-13T06:52:53.211Z,44.33
2023-03-13T06:55:39.107Z,43.08
2023-03-13T06:58:32.085Z,31.40
2023-03-13T07:01:18.702Z,37.58
2023-03-13T07:04:04.977Z,42.58
2023-03-13T07:06:51.910Z,37.72
2023-03-13T07:09:38.042Z,36.95
2023-03-13T07:12:24.268Z,36.10
2023-03-13T07:15:11.024Z,32.80
2023-03-13T07:17:58.588Z,32.28
2023-03-13T07:20:44.502Z,36.05
2023-03-13T07:23:30.333Z,38.97
2023-03-13T07:26:16.817Z,41.05
2023-03-13T07:29:02.646Z,43.10
2023-03-13T07:31:48.329Z,38.42
2023-03-13T07:34:34.202Z,45.55
2023-03-13T07:37:20.022Z,42.22
2023-03-13T07:40:06.359Z,46.25
2023-03-13T07:42:52.377Z,39.78
2023-03-13T07:45:38.109Z,36.78
2023-03-13T07:48:32.177Z,39.80
2023-03-13T07:51:30.468Z,41.38
2023-03-13T07:54:22.880Z,25.52
2023-03-13T07:57:09.145Z,26.38
2023-03-13T07:59:55.025Z,26.00
2023-03-13T08:02:41.048Z,20.40
2023-03-13T08:05:26.728Z,24.90
2023-03-13T08:08:12.651Z,22.20
2023-03-13T08:11:01.624Z,23.13
2023-03-13T08:13:47.901Z,29.70
2023-03-13T08:16:35.246Z,25.85
2023-03-13T08:19:21.695Z,21.38
2023-03-13T08:22:07.549Z,22.70
2023-03-13T08:24:53.518Z,25.05
2023-03-13T08:27:39.403Z,25.48
2023-03-13T08:30:25.133Z,16.88
2023-03-13T08:33:11.182Z,20.48
2023-03-13T08:35:57.288Z,21.58
2023-03-13T08:38:46.023Z,21.45
2023-03-13T08:41:36.120Z,22.58
2023-03-13T08:44:21.953Z,20.52
2023-03-13T08:47:08.380Z,20.20
2023-03-13T08:49:55.393Z,29.23
2023-03-13T08:52:44.783Z,19.15
2023-03-13T08:55:30.766Z,17.17
2023-03-13T08:58:16.495Z,25.75
2023-03-13T09:01:05.144Z,28.42
2023-03-13T09:03:51.626Z,22.90
2023-03-13T09:06:38.539Z,18.92
2023-03-13T09:09:24.723Z,23.45
2023-03-13T09:12:24.521Z,18.08
2023-03-13T09:15:16.311Z,15.68
2023-03-13T09:18:02.003Z,17.85
2023-03-13T09:20:49.061Z,18.70
2023-03-13T09:23:35.342Z,14.93
2023-03-13T09:26:23.350Z,14.23
2023-03-13T09:29:10.339Z,12.80
2023-03-13T09:31:56.137Z,14.00
2023-03-13T09:34:41.926Z,13.30
2023-03-13T09:37:27.739Z,15.98
2023-03-13T09:40:16.317Z,16.67
2023-03-13T09:43:02.175Z,18.35
2023-03-13T09:45:49.972Z,12.48
2023-03-13T09:48:49.436Z,17.83
2023-03-13T09:51:38.296Z,18.65
2023-03-13T09:55:05.718Z,11.32
2023-03-13T09:58:26.867Z,11.65
2023-03-13T10:01:13.065Z,13.98
2023-03-13T10:04:12.945Z,11.80
2023-03-13T10:06:59.046Z,17.55
2023-03-13T10:09:44.891Z,16.15
2023-03-13T10:12:38.226Z,12.75
2023-03-13T10:15:30.120Z,14.30
2023-03-13T10:18:21.886Z,10.93
2023-03-13T10:21:16.394Z,13.80
2023-03-13T10:24:06.462Z,13.07
2023-03-13T10:26:52.312Z,14.63
2023-03-13T10:29:38.841Z,21.95
2023-03-13T10:32:24.909Z,18.77
2023-03-13T10:35:15.387Z,19.38
2023-03-13T10:38:14.107Z,30.08
2023-03-13T10:41:03.235Z,28.27
2023-03-13T10:43:54.725Z,19.25
2023-03-13T10:46:42.269Z,20.75
2023-03-13T10:49:29.248Z,13.40
2023-03-13T10:52:45.569Z,19.95
2023-03-13T10:55:31.668Z,17.17
2023-03-13T10:58:28.306Z,14.55
2023-03-13T11:01:29.046Z,19.67
2023-03-13T11:04:32.992Z,15.05
2023-03-13T11:07:30.959Z,11.70
2023-03-13T11:10:32.535Z,19.27
2023-03-13T11:13:36.532Z,13.32
2023-03-13T11:16:26.903Z,15.07
2023-03-13T11:19:21.964Z,14.20
2023-03-13T11:22:14.287Z,13.45
2023-03-13T11:25:32.446Z,14.73
2023-03-13T11:28:30.362Z,16.42
2023-03-13T11:31:25.155Z,15.23
2023-03-13T11:34:33.037Z,14.23
2023-03-13T11:37:21.892Z,14.60
2023-03-13T11:40:29.119Z,15.82
2023-03-13T11:43:30.500Z,14.90
2023-03-13T11:46:35.175Z,17.23
2023-03-13T11:49:45.597Z,22.88
2023-03-13T11:52:37.435Z,17.95
2023-03-13T11:55:41.569Z,17.17
2023-03-13T11:58:42.958Z,21.55
2023-03-13T12:01:56.184Z,12.13
2023-03-13T12:04:49.376Z,15.50
2023-03-13T12:07:44.603Z,14.65
2023-03-13T12:10:35.212Z,18.73
2023-03-13T12:13:29.629Z,15.70
2023-03-13T12:16:19.997Z,21.40
2023-03-13T12:19:06.101Z,13.18
2023-03-13T12:21:54.183Z,17.25
2023-03-13T12:25:10.806Z,18.60
2023-03-13T12:28:05.908Z,18.35
2023-03-13T12:31:30.774Z,13.88
2023-03-13T12:34:22.577Z,18.63
2023-03-13T12:37:18.726Z,16.52
2023-03-13T12:40:35.470Z,21.67
2023-03-13T12:43:28.981Z,14.35
2023-03-13T12:46:21.251Z,12.98
2023-03-13T12:49:39.664Z,15.65
2023-03-13T12:52:31.706Z,10.90
2023-03-13T12:55:56.437Z,15.07
2023-03-13T12:59:03.675Z,14.32
2023-03-13T13:01:56.506Z,12.13
2023-03-13T13:04:44.990Z,10.55
2023-03-13T13:07:32.866Z,10.85
2023-03-13T13:10:22.985Z,15.75
2023-03-13T13:13:15.269Z,8.35
2023-03-13T13:16:12.216Z,10.73
2023-03-13T13:19:23.494Z,10.98
2023-03-13T13:22:36.755Z,18.05
2023-03-13T13:25:33.857Z,11.15
2023-03-13T13:28:21.906Z,9.35
2023-03-13T13:31:45.114Z,10.88
2023-03-13T13:34:31.353Z,7.53
2023-03-13T13:37:23.629Z,10.07
2023-03-13T13:40:15.376Z,8.43
2023-03-13T13:43:05.837Z,12.27
2023-03-13T13:46:07.244Z,12.65
2023-03-13T13:49:15.896Z,12.25
2023-03-13T13:52:01.573Z,15.55
2023-03-13T13:54:47.302Z,11.85
2023-03-13T13:57:35.838Z,13.57
2023-03-13T14:00:25.391Z,12.32
2023-03-13T14:03:43.483Z,15.55
2023-03-13T14:06:32.303Z,16.02
2023-03-13T14:09:28.968Z,13.70
2023-03-13T14:12:32.618Z,12.95
2023-03-13T14:15:22.823Z,8.07
2023-03-13T14:18:29.068Z,11.55
2023-03-13T14:21:14.793Z,13.63
2023-03-13T14:24:00.527Z,15.32
2023-03-13T14:26:46.646Z,14.00
2023-03-13T14:29:32.654Z,14.07
2023-03-13T14:32:18.835Z,21.42
2023-03-13T14:35:06.228Z,14.88
2023-03-13T14:37:54.493Z,17.50
2023-03-13T14:40:40.485Z,13.52
2023-03-13T14:43:36.617Z,21.48
2023-03-13T14:46:34.627Z,18.17
2023-03-13T14:49:24.444Z,13.90
2023-03-13T14:52:22.029Z,10.65
2023-03-13T14:55:28.535Z,11.98
2023-03-13T14:58:20.580Z,11.95
2023-03-13T15:01:30.677Z,11.48
2023-03-13T15:04:17.085Z,12.85
2023-03-13T15:07:03.518Z,17.42
2023-03-13T15:09:50.425Z,12.95
2023-03-13T15:12:43.115Z,12.88
2023-03-13T15:15:28.912Z,18.70
2023-03-13T15:18:26.519Z,24.27
2023-03-13T15:21:18.313Z,17.27
2023-03-13T15:24:22.213Z,17.77
2023-03-13T15:27:15.727Z,14.00
2023-03-13T15:30:01.481Z,21.88
2023-03-13T15:32:48.058Z,15.85
2023-03-13T15:35:34.053Z,24.67
2023-03-13T15:38:22.663Z,21.40
2023-03-13T15:41:09.390Z,18.27
2023-03-13T15:43:57.026Z,17.77
2023-03-13T15:46:43.144Z,18.65
2023-03-13T15:49:29.231Z,14.20
2023-03-13T15:52:22.714Z,16.92
2023-03-13T15:55:11.194Z,23.52
2023-03-13T15:57:57.344Z,15.52
2023-03-13T16:00:44.076Z,20.83
2023-03-13T16:03:30.469Z,22.60
2023-03-13T16:06:28.188Z,18.85
2023-03-13T16:09:14.159Z,19.30
2023-03-13T16:12:00.304Z,25.23
2023-03-13T16:14:48.663Z,27.27
2023-03-13T16:17:35.083Z,33.00
2023-03-13T16:20:23.641Z,31.08
2023-03-13T16:23:09.594Z,26.13
2023-03-13T16:25:55.320Z,18.80
2023-03-13T16:28:41.105Z,18.58
2023-03-13T16:31:29.916Z,31.17
2023-03-13T16:34:15.781Z,26.42
2023-03-13T16:37:01.596Z,24.38
2023-03-13T16:39:48.414Z,23.33
2023-03-13T16:42:34.242Z,25.58
2023-03-13T16:45:20.181Z,28.40
2023-03-13T16:48:06.149Z,28.85
2023-03-13T16:50:52.165Z,36.03
2023-03-13T16:53:38.188Z,37.17
2023-03-13T16:56:33.915Z,43.38
2023-03-13T16:59:20.056Z,38.35
2023-03-13T17:02:14.058Z,31.63
2023-03-13T17:04:59.770Z,30.88
2023-03-13T17:07:48.037Z,30.40
2023-03-13T17:10:34.107Z,39.53
2023-03-13T17:13:20.551Z,47.53
2023-03-13T17:16:14.109Z,40.72
2023-03-13T17:19:00.364Z,42.22
2023-03-13T17:21:46.217Z,35.90
2023-03-13T17:24:32.372Z,186.48
2023-03-13T17:27:18.555Z,42.42
2023-03-13T17:30:19.049Z,32.42
2023-03-13T17:33:05.144Z,32.08
2023-03-13T17:35:51.041Z,19.15
2023-03-13T17:38:36.781Z,28.48
2023-03-13T17:41:25.992Z,18.25
2023-03-13T17:44:12.050Z,15.65
2023-03-13T17:46:58.023Z,24.27
2023-03-13T17:49:44.183Z,23.67
2023-03-13T17:52:30.492Z,15.23
2023-03-13T17:55:16.639Z,13.05
2023-03-13T17:58:02.622Z,12.82
2023-03-13T18:00:48.845Z,14.27
2023-03-13T18:03:34.802Z,14.98
2023-03-13T18:06:38.754Z,12.52
2023-03-13T18:09:25.342Z,13.05
2023-03-13T18:12:11.681Z,15.50
2023-03-13T18:14:57.689Z,21.15
2023-03-13T18:17:43.844Z,32.72
2023-03-13T18:20:31.562Z,20.60
2023-03-13T18:23:17.720Z,23.67
2023-03-13T18:26:20.601Z,34.63
2023-03-13T18:29:18.000Z,35.42
2023-03-13T18:32:03.723Z,38.45
2023-03-13T18:34:49.482Z,49.13
2023-03-13T18:37:35.826Z,42.47
2023-03-13T18:40:24.863Z,47.47
2023-03-13T18:43:11.001Z,84.53
2023-03-13T18:45:57.164Z,70.90
2023-03-13T18:48:43.461Z,59.45
2023-03-13T18:51:30.852Z,52.45
2023-03-13T18:54:17.146Z,48.13
2023-03-13T18:57:03.077Z,57.38
2023-03-13T18:59:48.990Z,50.20
2023-03-13T19:02:34.952Z,45.40
2023-03-13T19:05:20.749Z,43.33
2023-03-13T19:08:06.524Z,62.55
2023-03-13T19:10:52.524Z,61.85
2023-03-13T19:13:38.629Z,58.55
2023-03-13T19:16:27.543Z,65.35
2023-03-13T19:19:23.618Z,73.47
2023-03-13T19:22:13.576Z,75.22
2023-03-13T19:24:59.309Z,70.35
2023-03-13T19:27:45.876Z,76.03
2023-03-13T19:30:31.949Z,63.60
2023-03-13T19:33:17.681Z,49.33
2023-03-13T19:36:03.756Z,38.28
2023-03-13T19:38:49.932Z,43.28
2023-03-13T19:41:36.204Z,64.15
2023-03-13T19:44:22.438Z,44.75
2023-03-13T19:47:13.682Z,54.30
2023-03-13T19:50:00.446Z,67.53
2023-03-13T19:52:46.672Z,66.88
2023-03-13T19:55:32.733Z,43.35
2023-03-13T19:58:18.769Z,43.78
2023-03-13T20:01:15.121Z,57.92
2023-03-13T20:04:03.551Z,43.78
2023-03-13T20:06:49.525Z,41.88
2023-03-13T20:09:36.323Z,31.15
2023-03-13T20:12:22.719Z,24.02
2023-03-13T20:15:09.202Z,28.02
2023-03-13T20:17:55.384Z,33.95
2023-03-13T20:20:41.249Z,35.85
2023-03-13T20:23:27.016Z,32.88
2023-03-13T20:26:15.580Z,33.80
2023-03-13T20:29:01.575Z,32.25
2023-03-13T20:31:47.436Z,40.20
2023-03-13T20:34:34.010Z,40.95
2023-03-13T20:37:20.833Z,47.38
2023-03-13T20:40:08.818Z,44.58
2023-03-13T20:42:54.599Z,45.85
2023-03-13T20:45:40.431Z,52.22
2023-03-13T20:48:26.650Z,46.97
2023-03-13T20:51:13.251Z,46.78
2023-03-13T20:53:59.425Z,55.25
2023-03-13T20:56:45.368Z,51.83
2023-03-13T20:59:31.899Z,54.67
2023-03-13T21:02:18.269Z,38.22
2023-03-13T21:05:04.035Z,38.45
2023-03-13T21:07:50.213Z,36.78
2023-03-13T21:10:40.863Z,38.90
2023-03-13T21:13:26.989Z,37.70
2023-03-13T21:16:13.958Z,38.92
2023-03-13T21:18:59.961Z,37.97
2023-03-13T21:21:46.875Z,36.30
2023-03-13T21:24:33.759Z,33.80
2023-03-13T21:27:19.760Z,33.20
2023-03-13T21:30:07.564Z,33.45
2023-03-13T21:32:54.550Z,43.22
2023-03-13T21:35:40.720Z,37.45
2023-03-13T21:38:26.523Z,38.55
2023-03-13T21:41:18.094Z,63.22
2023-03-13T21:44:04.233Z,72.20
2023-03-13T21:46:51.771Z,91.88
2023-03-13T21:49:37.700Z,97.03
2023-03-13T21:52:23.619Z,87.93
2023-03-13T21:55:12.810Z,89.85
2023-03-13T21:57:58.894Z,94.82
2023-03-13T22:00:44.984Z,68.07
2023-03-13T22:03:31.951Z,53.00
2023-03-13T22:06:20.043Z,51.00
2023-03-13T22:09:07.757Z,51.58
2023-03-13T22:11:53.698Z,46.60
2023-03-13T22:14:39.387Z,48.97
2023-03-13T22:17:25.243Z,32.67
2023-03-13T22:20:11.929Z,38.78
2023-03-13T22:22:57.908Z,36.00
2023-03-13T22:25:43.978Z,51.03
2023-03-13T22:28:29.822Z,36.08
2023-03-13T22:31:15.584Z,35.65
2023-03-13T22:34:01.491Z,45.45
2023-03-13T22:36:47.369Z,33.30
2023-03-13T22:39:33.229Z,39.15
2023-03-13T22:42:19.052Z,39.03
2023-03-13T22:45:05.157Z,54.47
2023-03-13T22:47:51.235Z,35.53
2023-03-13T22:50:37.329Z,38.30
2023-03-13T22:53:22.995Z,45.20
2023-03-13T22:56:10.113Z,35.22
2023-03-13T22:58:56.211Z,38.33
2023-03-13T23:01:41.958Z,46.80
2023-03-13T23:04:27.968Z,38.78
2023-03-13T23:07:13.716Z,46.38
2023-03-13T23:09:59.620Z,44.80
2023-03-13T23:12:45.463Z,44.08
2023-03-13T23:15:43.026Z,42.75
2023-03-13T23:18:37.910Z,49.58
2023-03-13T23:21:24.072Z,48.58
2023-03-13T23:24:09.757Z,40.22
2023-03-13T23:26:55.837Z,38.80
2023-03-13T23:29:41.693Z,41.15
2023-03-13T23:32:28.424Z,41.35
2023-03-13T23:35:16.991Z,40.97
2023-03-13T23:38:02.912Z,41.92
2023-03-13T23:40:48.761Z,41.50
2023-03-13T23:43:35.232Z,37.67
2023-03-13T23:46:23.405Z,40.95
2023-03-13T23:49:09.156Z,40.97
2023-03-13T23:51:55.044Z,41.97
2023-03-13T23:54:41.050Z,43.70
2023-03-13T23:57:26.878Z,41.05
